createdAt,value
2019-01-24T00:00:28.807Z,96792.97
2019-01-24T00:02:59.589Z,96792.74
2019-01-24T00:05:30.400Z,96793.70
2019-01-24T00:08:00.951Z,96801.09
2019-01-24T00:10:31.461Z,96805.19
2019-01-24T00:13:02.012Z,96806.41
2019-01-24T00:15:32.754Z,96806.48
2019-01-24T00:18:03.511Z,96816.98
2019-01-24T00:20:34.046Z,96821.06
2019-01-24T00:23:04.551Z,96824.37
2019-01-24T00:25:35.098Z,96826.01
2019-01-24T00:28:05.649Z,96830.55
2019-01-24T00:30:36.175Z,96832.06
2019-01-24T00:33:06.739Z,96834.05
2019-01-24T00:35:37.546Z,96830.34
2019-01-24T00:38:08.120Z,96829.20
2019-01-24T00:40:38.620Z,96834.29
2019-01-24T00:43:09.178Z,96835.61
2019-01-24T00:45:39.727Z,96835.80
2019-01-24T00:48:11.665Z,96843.63
2019-01-24T00:50:42.449Z,96836.25
2019-01-24T00:53:12.976Z,96844.89
2019-01-24T00:55:43.611Z,96855.52
2019-01-24T00:58:14.133Z,96853.72
2019-01-24T01:00:44.769Z,96859.22
2019-01-24T01:03:15.615Z,96865.84
2019-01-24T01:05:46.172Z,96859.55
2019-01-24T01:08:16.696Z,96867.69
2019-01-24T01:10:47.503Z,96864.50
2019-01-24T01:13:18.068Z,96862.67
2019-01-24T01:15:48.797Z,96868.74
2019-01-24T01:18:19.650Z,96879.24
2019-01-24T01:20:50.318Z,96877.34
2019-01-24T01:23:20.838Z,96876.87
2019-01-24T01:25:51.678Z,96876.68
2019-01-24T01:28:22.230Z,96883.50
2019-01-24T01:30:52.811Z,96885.58
2019-01-24T01:33:23.584Z,96887.58
2019-01-24T01:35:54.112Z,96890.39
2019-01-24T01:38:24.644Z,96894.60
2019-01-24T01:40:55.188Z,96897.40
2019-01-24T01:43:25.999Z,96899.53
2019-01-24T01:45:56.911Z,96896.72
2019-01-24T01:48:27.725Z,96908.16
2019-01-24T01:50:58.226Z,96904.75
2019-01-24T01:53:28.845Z,96907.30
2019-01-24T01:55:59.721Z,96910.32
2019-01-24T01:58:30.203Z,96912.30
2019-01-24T02:01:00.923Z,96911.34
2019-01-24T02:03:31.700Z,96911.01
2019-01-24T02:06:02.253Z,96915.92
2019-01-24T02:08:32.747Z,96919.94
2019-01-24T02:11:03.306Z,96920.22
2019-01-24T02:13:33.824Z,96922.28
2019-01-24T02:16:04.425Z,96924.54
2019-01-24T02:18:35.020Z,96915.02
2019-01-24T02:21:06.196Z,96923.58
2019-01-24T02:23:36.722Z,96925.06
2019-01-24T02:26:07.366Z,96923.64
2019-01-24T02:28:37.901Z,96919.77
2019-01-24T02:31:08.404Z,96917.26
2019-01-24T02:33:38.997Z,96926.38
2019-01-24T02:36:09.749Z,96926.86
2019-01-24T02:38:40.238Z,96932.41
2019-01-24T02:41:12.113Z,96933.11
2019-01-24T02:43:42.727Z,96937.91
2019-01-24T02:46:13.537Z,96941.16
2019-01-24T02:48:44.011Z,96953.06
2019-01-24T02:51:14.823Z,96956.05
2019-01-24T02:53:45.347Z,96960.97
2019-01-24T02:56:15.981Z,96958.03
2019-01-24T02:58:46.867Z,96960.67
2019-01-24T03:01:17.707Z,96957.59
2019-01-24T03:03:48.243Z,96953.82
2019-01-24T03:06:19.121Z,96960.06
2019-01-24T03:08:49.811Z,96956.87
2019-01-24T03:11:20.368Z,96960.17
2019-01-24T03:13:50.929Z,96956.02
2019-01-24T03:16:22.014Z,96956.88
2019-01-24T03:18:52.552Z,96958.99
2019-01-24T03:21:23.260Z,96957.70
2019-01-24T03:23:53.818Z,96958.18
2019-01-24T03:26:24.316Z,96964.84
2019-01-24T03:28:54.857Z,96974.27
2019-01-24T03:31:25.365Z,96983.41
2019-01-24T03:33:56.205Z,96979.16
2019-01-24T03:36:27.030Z,96981.95
2019-01-24T03:38:57.899Z,96986.03
2019-01-24T03:41:28.391Z,96991.23
2019-01-24T03:43:58.898Z,96995.02
2019-01-24T03:46:29.409Z,96997.82
2019-01-24T03:49:00.038Z,96999.45
2019-01-24T03:51:30.887Z,97002.15
2019-01-24T03:54:01.375Z,96998.56
2019-01-24T03:56:31.903Z,96999.08
2019-01-24T03:59:02.434Z,96998.27
2019-01-24T04:01:32.972Z,97004.89
2019-01-24T04:04:03.499Z,97002.66
2019-01-24T04:06:34.145Z,97005.48
2019-01-24T04:09:09.056Z,97000.98
2019-01-24T04:11:42.603Z,97000.78
2019-01-24T04:14:13.132Z,97010.33
2019-01-24T04:16:43.928Z,97003.08
2019-01-24T04:19:14.426Z,97005.28
2019-01-24T04:21:45.150Z,97011.09
2019-01-24T04:24:15.992Z,97014.96
2019-01-24T04:26:46.510Z,97012.13
2019-01-24T04:29:17.036Z,97010.60
2019-01-24T04:31:47.530Z,97007.27
2019-01-24T04:34:18.262Z,97019.47
2019-01-24T04:36:49.034Z,97018.30
2019-01-24T04:39:19.619Z,97027.33
2019-01-24T04:41:50.104Z,97036.02
2019-01-24T04:44:20.609Z,97035.93
2019-01-24T04:46:51.150Z,97041.98
2019-01-24T04:49:22.303Z,97038.41
2019-01-24T04:51:53.195Z,97043.19
2019-01-24T04:54:24.003Z,97042.17
2019-01-24T04:56:54.556Z,97037.20
2019-01-24T04:59:25.088Z,97051.93
2019-01-24T05:01:55.601Z,97048.17
2019-01-24T05:04:26.372Z,97051.00
2019-01-24T05:06:57.197Z,97051.47
2019-01-24T05:09:27.981Z,97048.28
2019-01-24T05:11:58.514Z,97050.53
2019-01-24T05:14:29.319Z,97051.38
2019-01-24T05:17:00.212Z,97056.70
2019-01-24T05:19:31.072Z,97053.11
2019-01-24T05:22:01.573Z,97055.63
2019-01-24T05:24:32.291Z,97059.17
2019-01-24T05:27:03.090Z,97061.69
2019-01-24T05:29:33.574Z,97070.81
2019-01-24T05:32:04.333Z,97074.75
2019-01-24T05:34:35.160Z,97075.00
2019-01-24T05:37:05.696Z,97075.46
2019-01-24T05:39:36.235Z,97074.37
2019-01-24T05:42:07.045Z,97075.58
2019-01-24T05:44:37.537Z,97082.02
2019-01-24T05:47:08.143Z,97083.89
2019-01-24T05:49:38.655Z,97087.83
2019-01-24T05:52:09.299Z,97096.47
2019-01-24T05:54:39.806Z,97100.50
2019-01-24T05:57:10.386Z,97104.65
2019-01-24T05:59:41.117Z,97110.96
2019-01-24T06:02:12.479Z,97117.69
2019-01-24T06:04:43.204Z,97118.06
2019-01-24T06:07:14.010Z,97122.27
2019-01-24T06:09:44.547Z,97128.27
2019-01-24T06:12:15.435Z,97132.84
2019-01-24T06:14:46.165Z,97138.73
2019-01-24T06:17:16.744Z,97139.48
2019-01-24T06:19:47.277Z,97139.81
2019-01-24T06:22:18.398Z,97145.98
2019-01-24T06:24:48.943Z,97150.43
2019-01-24T06:27:19.591Z,97148.89
2019-01-24T06:29:50.224Z,97146.34
2019-01-24T06:32:20.807Z,97146.81
2019-01-24T06:34:51.397Z,97155.35
2019-01-24T06:37:21.989Z,97150.31
2019-01-24T06:39:52.587Z,97152.94
2019-01-24T06:42:23.398Z,97151.90
2019-01-24T06:44:54.434Z,97151.95
2019-01-24T06:47:25.243Z,97153.84
2019-01-24T06:49:55.950Z,97153.89
2019-01-24T06:52:26.576Z,97154.44
2019-01-24T06:54:57.409Z,97166.70
2019-01-24T06:57:28.188Z,97170.03
2019-01-24T06:59:58.674Z,97166.48
2019-01-24T07:02:29.275Z,97175.92
2019-01-24T07:04:59.767Z,97174.31
2019-01-24T07:07:30.303Z,97181.45
2019-01-24T07:10:00.822Z,97184.67
2019-01-24T07:12:31.886Z,97187.49
2019-01-24T07:15:02.397Z,97190.27
2019-01-24T07:17:33.243Z,97196.28
2019-01-24T07:20:05.199Z,97194.25
2019-01-24T07:22:35.690Z,97197.59
2019-01-24T07:25:10.373Z,97196.03
2019-01-24T07:27:40.982Z,97201.63
2019-01-24T07:30:14.863Z,97201.85
2019-01-24T07:32:45.384Z,97212.00
2019-01-24T07:35:17.063Z,97218.02
2019-01-24T07:37:47.610Z,97218.83
2019-01-24T07:40:19.370Z,97224.50
2019-01-24T07:42:52.425Z,97226.48
2019-01-24T07:45:32.456Z,97228.31
2019-01-24T07:48:03.048Z,97230.21
2019-01-24T07:50:33.601Z,97239.23
2019-01-24T07:53:06.318Z,97236.97
2019-01-24T07:55:36.991Z,97237.34
2019-01-24T07:58:08.470Z,97245.37
2019-01-24T08:00:40.307Z,97246.66
2019-01-24T08:03:10.939Z,97248.23
2019-01-24T08:05:41.451Z,97255.30
2019-01-24T08:08:12.801Z,97261.97
2019-01-24T08:10:44.007Z,97261.56
2019-01-24T08:13:14.785Z,97248.66
2019-01-24T08:15:45.791Z,97269.09
2019-01-24T08:18:16.680Z,97266.12
2019-01-24T08:20:47.514Z,97269.80
2019-01-24T08:23:18.099Z,97276.14
2019-01-24T08:25:48.771Z,97270.95
2019-01-24T08:28:19.773Z,97268.89
2019-01-24T08:30:50.644Z,97273.59
2019-01-24T08:33:21.464Z,97276.74
2019-01-24T08:35:51.998Z,97273.82
2019-01-24T08:38:22.535Z,97279.39
2019-01-24T08:40:53.048Z,97284.02
2019-01-24T08:43:23.824Z,97283.42
2019-01-24T08:45:54.607Z,97279.62
2019-01-24T08:48:25.176Z,97281.48
2019-01-24T08:50:55.787Z,97286.43
2019-01-24T08:53:26.561Z,97287.30
2019-01-24T08:55:57.115Z,97285.91
2019-01-24T08:58:27.809Z,97288.17
2019-01-24T09:00:58.668Z,97292.72
2019-01-24T09:03:29.510Z,97293.02
2019-01-24T09:06:00.109Z,97292.80
2019-01-24T09:08:30.657Z,97295.08
2019-01-24T09:11:01.492Z,97296.02
2019-01-24T09:13:32.111Z,97298.27
2019-01-24T09:16:02.706Z,97293.22
2019-01-24T09:18:33.253Z,97304.17
2019-01-24T09:21:03.877Z,97300.28
2019-01-24T09:23:34.601Z,97305.87
2019-01-24T09:26:05.467Z,97307.89
2019-01-24T09:28:35.985Z,97312.39
2019-01-24T09:31:06.773Z,97307.38
2019-01-24T09:33:37.584Z,97310.50
2019-01-24T09:36:08.399Z,97315.91
2019-01-24T09:38:38.946Z,97322.20
2019-01-24T09:41:09.640Z,97327.42
2019-01-24T09:43:40.416Z,97331.08
2019-01-24T09:46:12.110Z,97333.81
2019-01-24T09:48:42.762Z,97334.31
2019-01-24T09:51:13.586Z,97335.13
2019-01-24T09:53:44.103Z,97332.61
2019-01-24T09:56:14.624Z,97336.73
2019-01-24T09:58:45.191Z,97338.42
2019-01-24T10:01:15.995Z,97342.73
2019-01-24T10:03:46.822Z,97347.68
2019-01-24T10:06:17.663Z,97349.09
2019-01-24T10:08:48.195Z,97350.02
2019-01-24T10:11:23.477Z,97351.53
2019-01-24T10:13:51.238Z,97346.47
2019-01-24T10:16:22.062Z,97351.81
2019-01-24T10:18:52.890Z,97353.12
2019-01-24T10:21:23.747Z,97358.30
2019-01-24T10:23:54.298Z,97361.02
2019-01-24T10:26:24.800Z,97362.31
2019-01-24T10:28:55.624Z,97369.20
2019-01-24T10:31:26.199Z,97370.45
2019-01-24T10:33:56.856Z,97370.91
2019-01-24T10:36:27.649Z,97372.61
2019-01-24T10:38:58.239Z,97370.39
2019-01-24T10:41:28.787Z,97374.50
2019-01-24T10:43:59.343Z,97374.54
2019-01-24T10:46:30.082Z,97377.36
2019-01-24T10:49:01.030Z,97380.17
2019-01-24T10:51:31.895Z,97376.88
2019-01-24T10:54:02.709Z,97375.83
2019-01-24T10:56:33.248Z,97375.40
2019-01-24T10:59:03.880Z,97380.14
2019-01-24T11:01:34.736Z,97373.25
2019-01-24T11:04:05.380Z,97375.72
2019-01-24T11:06:35.928Z,97368.73
2019-01-24T11:09:09.953Z,97373.80
2019-01-24T11:11:40.911Z,97382.98
2019-01-24T11:14:13.099Z,97385.81
2019-01-24T11:16:43.855Z,97387.90
2019-01-24T11:19:15.013Z,97384.28
2019-01-24T11:21:45.577Z,97386.33
2019-01-24T11:24:16.273Z,97383.85
2019-01-24T11:26:46.870Z,97388.80
2019-01-24T11:29:17.419Z,97383.62
2019-01-24T11:31:48.103Z,97383.23
2019-01-24T11:34:19.126Z,97378.79
2019-01-24T11:36:49.927Z,97378.53
2019-01-24T11:39:20.767Z,97375.77
2019-01-24T11:41:51.289Z,97375.36
2019-01-24T11:44:21.797Z,97373.47
2019-01-24T11:46:52.346Z,97378.03
2019-01-24T11:49:23.127Z,97379.25
2019-01-24T11:51:53.989Z,97378.62
2019-01-24T11:54:24.866Z,97375.99
2019-01-24T11:56:55.417Z,97381.05
2019-01-24T11:59:25.946Z,97379.53
2019-01-24T12:01:56.842Z,97381.63
2019-01-24T12:04:27.662Z,97385.23
2019-01-24T12:07:04.112Z,97383.72
2019-01-24T12:09:30.441Z,97378.83
2019-01-24T12:12:00.969Z,97380.69
2019-01-24T12:14:31.543Z,97376.28
2019-01-24T12:17:02.234Z,97377.03
2019-01-24T12:19:33.171Z,97380.98
2019-01-24T12:22:04.103Z,97378.39
2019-01-24T12:24:34.655Z,97379.19
2019-01-24T12:27:05.189Z,97370.19
2019-01-24T12:29:35.944Z,97371.31
2019-01-24T12:32:06.452Z,97370.47
2019-01-24T12:34:37.039Z,97374.05
2019-01-24T12:37:11.345Z,97378.58
2019-01-24T12:39:40.127Z,97375.09
2019-01-24T12:42:11.028Z,97373.76
2019-01-24T12:44:41.860Z,97378.28
2019-01-24T12:47:13.331Z,97383.58
2019-01-24T12:49:44.015Z,97385.50
2019-01-24T12:52:14.842Z,97390.03
2019-01-24T12:54:45.370Z,97389.93
2019-01-24T12:57:16.204Z,97391.78
2019-01-24T12:59:46.999Z,97396.11
2019-01-24T13:02:17.582Z,97391.06
2019-01-24T13:04:48.115Z,97387.80
2019-01-24T13:07:19.283Z,97391.91
2019-01-24T13:09:50.116Z,97396.36
2019-01-24T13:12:20.943Z,97386.70
2019-01-24T13:14:51.473Z,97386.67
2019-01-24T13:17:21.975Z,97394.22
2019-01-24T13:19:52.518Z,97396.51
2019-01-24T13:22:23.893Z,97399.25
2019-01-24T13:24:54.438Z,97393.58
2019-01-24T13:27:25.312Z,97393.45
2019-01-24T13:29:56.039Z,97394.02
2019-01-24T13:32:26.687Z,97391.48
2019-01-24T13:34:57.246Z,97387.59
2019-01-24T13:37:27.835Z,97390.80
2019-01-24T13:39:58.409Z,97398.65
2019-01-24T13:42:29.232Z,97395.13
2019-01-24T13:45:00.194Z,97402.00
2019-01-24T13:47:31.149Z,97406.89
2019-01-24T13:50:02.009Z,97403.73
2019-01-24T13:52:32.563Z,97406.69
2019-01-24T13:55:03.289Z,97416.05
2019-01-24T13:57:34.131Z,97414.36
2019-01-24T14:00:07.632Z,97419.84
2019-01-24T14:02:39.071Z,97421.25
2019-01-24T14:05:12.114Z,97425.75
2019-01-24T14:07:42.687Z,97428.05
2019-01-24T14:10:15.120Z,97425.83
2019-01-24T14:12:45.619Z,97431.17
2019-01-24T14:15:17.460Z,97433.19
2019-01-24T14:17:48.159Z,97435.39
2019-01-24T14:20:19.842Z,97436.24
2019-01-24T14:22:50.544Z,97443.70
2019-01-24T14:25:21.619Z,97444.77
2019-01-24T14:27:52.373Z,97457.00
2019-01-24T14:30:26.779Z,97457.93
2019-01-24T14:32:57.539Z,97458.89
2019-01-24T14:35:28.151Z,97467.52
2019-01-24T14:37:59.003Z,97471.03
2019-01-24T14:40:29.644Z,97477.94
2019-01-24T14:43:00.472Z,97480.33
2019-01-24T14:45:31.392Z,97481.47
2019-01-24T14:48:02.171Z,97488.41
2019-01-24T14:50:32.796Z,97486.38
2019-01-24T14:53:03.437Z,97491.46
2019-01-24T14:55:34.282Z,97494.45
2019-01-24T14:58:05.906Z,97491.91
2019-01-24T15:00:51.187Z,97497.38
2019-01-24T15:03:21.763Z,97499.67
2019-01-24T15:05:52.348Z,97500.36
2019-01-24T15:08:23.230Z,97502.72
2019-01-24T15:10:53.825Z,97507.96
2019-01-24T15:13:24.733Z,97507.59
2019-01-24T15:15:55.458Z,97506.67
2019-01-24T15:18:26.486Z,97508.58
2019-01-24T15:20:57.299Z,97509.70
2019-01-24T15:23:28.390Z,97509.50
2019-01-24T15:25:59.197Z,97508.85
2019-01-24T15:28:29.751Z,97510.16
2019-01-24T15:31:00.462Z,97507.70
2019-01-24T15:33:31.360Z,97505.49
2019-01-24T15:36:01.954Z,97503.89
2019-01-24T15:38:32.537Z,97509.66
2019-01-24T15:41:03.320Z,97511.89
2019-01-24T15:43:33.909Z,97515.68
2019-01-24T15:46:04.716Z,97519.17
2019-01-24T15:48:42.263Z,97514.41
2019-01-24T15:51:07.822Z,97520.25
2019-01-24T15:53:38.472Z,97516.17
2019-01-24T15:56:09.307Z,97517.30
2019-01-24T15:58:39.910Z,97522.75
2019-01-24T16:01:10.586Z,97524.63
2019-01-24T16:03:41.505Z,97530.55
2019-01-24T16:06:13.546Z,97534.09
2019-01-24T16:08:44.394Z,97537.91
2019-01-24T16:11:15.005Z,97537.67
2019-01-24T16:13:45.722Z,97538.19
2019-01-24T16:16:16.552Z,97545.14
2019-01-24T16:18:47.132Z,97550.56
2019-01-24T16:21:17.782Z,97550.75
2019-01-24T16:23:48.416Z,97552.36
2019-01-24T16:26:19.005Z,97556.00
2019-01-24T16:28:49.595Z,97566.37
2019-01-24T16:31:20.141Z,97564.92
2019-01-24T16:33:50.774Z,97569.91
2019-01-24T16:36:21.786Z,97572.80
2019-01-24T16:38:52.430Z,97574.83
2019-01-24T16:41:23.014Z,97574.53
2019-01-24T16:43:53.587Z,97578.46
2019-01-24T16:46:24.213Z,97583.16
2019-01-24T16:48:54.901Z,97589.97
2019-01-24T16:51:25.799Z,97579.95
2019-01-24T16:53:56.552Z,97578.36
2019-01-24T16:56:27.463Z,97583.91
2019-01-24T16:58:58.155Z,97590.51
2019-01-24T17:01:28.807Z,97592.32
2019-01-24T17:03:59.832Z,97599.63
2019-01-24T17:06:30.934Z,97608.66
2019-01-24T17:09:01.812Z,97606.41
2019-01-24T17:11:32.476Z,97605.19
2019-01-24T17:14:04.119Z,97602.88
2019-01-24T17:16:34.770Z,97612.45
2019-01-24T17:19:05.884Z,97609.54
2019-01-24T17:21:36.718Z,97612.18
2019-01-24T17:24:07.650Z,97629.89
2019-01-24T17:26:38.493Z,97629.90
2019-01-24T17:29:09.062Z,97629.13
2019-01-24T17:31:40.007Z,97634.63
2019-01-24T17:34:10.910Z,97637.52
2019-01-24T17:36:41.977Z,97641.53
2019-01-24T17:39:14.304Z,97642.37
2019-01-24T17:41:46.472Z,97642.26
2019-01-24T17:44:17.069Z,97644.44
2019-01-24T17:46:47.667Z,97650.52
2019-01-24T17:49:20.026Z,97650.30
2019-01-24T17:51:50.729Z,97658.23
2019-01-24T17:54:21.582Z,97661.64
2019-01-24T17:56:52.234Z,97660.91
2019-01-24T17:59:22.776Z,97665.67
2019-01-24T18:01:53.720Z,97660.80
2019-01-24T18:04:24.265Z,97671.64
2019-01-24T18:06:54.900Z,97668.19
2019-01-24T18:09:25.771Z,97673.34
2019-01-24T18:11:56.573Z,97676.66
2019-01-24T18:14:27.118Z,97677.83
2019-01-24T18:16:57.714Z,97678.42
2019-01-24T18:19:28.910Z,97686.73
2019-01-24T18:21:59.838Z,97684.34
2019-01-24T18:24:30.783Z,97687.27
2019-01-24T18:27:01.399Z,97686.61
2019-01-24T18:29:31.984Z,97689.48
2019-01-24T18:34:40.638Z,97690.92
2019-01-24T18:37:11.288Z,97693.16
2019-01-24T18:39:41.957Z,97686.98
2019-01-24T18:42:14.402Z,97688.24
2019-01-24T18:44:45.109Z,97688.89
2019-01-24T18:47:15.691Z,97692.79
2019-01-24T18:49:46.347Z,97697.58
2019-01-24T18:52:17.253Z,97695.51
2019-01-24T18:54:47.898Z,97703.33
2019-01-24T18:57:18.961Z,97703.23
2019-01-24T18:59:49.753Z,97707.95
2019-01-24T19:02:20.335Z,97713.36
2019-01-24T19:04:51.098Z,97713.48
2019-01-24T19:07:22.139Z,97720.06
2019-01-24T19:09:53.066Z,97718.23
2019-01-24T19:12:23.925Z,97716.91
2019-01-24T19:14:54.849Z,97725.64
2019-01-24T19:17:26.120Z,97723.52
2019-01-24T19:19:56.749Z,97727.66
2019-01-24T19:22:27.411Z,97725.62
2019-01-24T19:24:57.983Z,97729.95
2019-01-24T19:27:28.895Z,97735.03
2019-01-24T19:29:59.946Z,97736.75
2019-01-24T19:32:30.797Z,97738.88
2019-01-24T19:35:01.630Z,97737.84
2019-01-24T19:37:32.155Z,97745.07
2019-01-24T19:40:03.015Z,97744.14
2019-01-24T19:42:36.057Z,97743.31
2019-01-24T19:45:11.567Z,97740.80
2019-01-24T19:47:42.164Z,97733.98
2019-01-24T19:50:17.774Z,97749.69
2019-01-24T19:52:48.485Z,97751.03
2019-01-24T19:55:19.615Z,97751.97
2019-01-24T19:57:54.668Z,97748.62
2019-01-24T20:00:28.409Z,97755.77
2019-01-24T20:02:59.182Z,97756.77
2019-01-24T20:05:30.185Z,97759.86
2019-01-24T20:08:01.094Z,97762.86
2019-01-24T20:10:32.372Z,97762.75
2019-01-24T20:13:03.269Z,97763.47
2019-01-24T20:15:34.053Z,97766.58
2019-01-24T20:18:06.611Z,97768.72
2019-01-24T20:20:37.711Z,97770.99
2019-01-24T20:23:08.575Z,97771.54
2019-01-24T20:25:39.142Z,97772.86
2019-01-24T20:28:10.012Z,97775.83
2019-01-24T20:30:40.876Z,97775.89
2019-01-24T20:33:11.488Z,97781.27
2019-01-24T20:36:01.260Z,97785.20
2019-01-24T20:38:31.882Z,97787.72
2019-01-24T20:41:02.641Z,97795.46
2019-01-24T20:43:35.602Z,97799.39
2019-01-24T20:46:05.975Z,97801.80
2019-01-24T20:48:36.772Z,97808.08
2019-01-24T20:51:07.419Z,97807.20
2019-01-24T20:53:37.987Z,97812.20
2019-01-24T20:56:08.956Z,97812.81
2019-01-24T20:58:39.862Z,97812.80
2019-01-24T21:01:10.486Z,97815.95
2019-01-24T21:03:41.205Z,97814.80
2019-01-24T21:06:12.103Z,97816.33
2019-01-24T21:08:43.475Z,97815.50
2019-01-24T21:11:14.468Z,97820.31
2019-01-24T21:13:45.124Z,97829.21
2019-01-24T21:16:16.214Z,97826.72
2019-01-24T21:18:47.061Z,97824.52
2019-01-24T21:21:18.100Z,97828.17
2019-01-24T21:23:49.067Z,97827.29
2019-01-24T21:26:19.913Z,97826.89
2019-01-24T21:28:50.567Z,97818.87
2019-01-24T21:31:21.446Z,97826.13
2019-01-24T21:33:52.269Z,97832.80
2019-01-24T21:36:23.151Z,97823.30
2019-01-24T21:38:54.042Z,97830.84
2019-01-24T21:41:24.911Z,97832.59
2019-01-24T21:43:55.550Z,97832.21
2019-01-24T21:46:26.280Z,97827.44
2019-01-24T21:48:57.083Z,97826.81
2019-01-24T21:51:27.931Z,97827.95
2019-01-24T21:53:58.560Z,97831.92
2019-01-24T21:56:29.151Z,97831.23
2019-01-24T21:59:00.026Z,97831.47
2019-01-24T22:01:31.248Z,97827.33
2019-01-24T22:04:07.444Z,97823.11
2019-01-24T22:06:38.116Z,97835.77
2019-01-24T22:09:10.592Z,97827.44
2019-01-24T22:11:41.228Z,97838.16
2019-01-24T22:14:11.954Z,97845.02
2019-01-24T22:16:42.676Z,97840.47
2019-01-24T22:19:14.411Z,97841.08
2019-01-24T22:21:45.284Z,97843.01
2019-01-24T22:24:16.155Z,97846.06
2019-01-24T22:26:47.026Z,97836.04
2019-01-24T22:29:17.692Z,97845.30
2019-01-24T22:31:48.318Z,97845.45
2019-01-24T22:34:19.173Z,97842.09
2019-01-24T22:36:49.746Z,97844.41
2019-01-24T22:39:20.433Z,97849.48
2019-01-24T22:41:51.120Z,97850.33
2019-01-24T22:44:21.977Z,97848.75
2019-01-24T22:46:52.566Z,97846.83
2019-01-24T22:49:23.323Z,97846.55
2019-01-24T22:51:54.227Z,97845.59
2019-01-24T22:54:25.112Z,97840.00
2019-01-24T22:56:55.917Z,97832.52
2019-01-24T22:59:26.521Z,97837.91
2019-01-24T23:02:10.514Z,97841.75
2019-01-24T23:04:41.024Z,97842.49
2019-01-24T23:07:11.597Z,97843.37
2019-01-24T23:09:44.175Z,97841.18
2019-01-24T23:12:14.576Z,97844.48
2019-01-24T23:14:45.194Z,97841.25
2019-01-24T23:17:16.036Z,97841.63
2019-01-24T23:19:46.547Z,97839.39
2019-01-24T23:22:17.353Z,97840.03
2019-01-24T23:24:48.202Z,97840.06
2019-01-24T23:27:19.045Z,97844.20
2019-01-24T23:29:49.633Z,97841.05
2019-01-24T23:32:20.164Z,97850.14
2019-01-24T23:34:50.964Z,97843.95
2019-01-24T23:37:21.458Z,97849.29
2019-01-24T23:39:53.589Z,97846.95
2019-01-24T23:42:24.480Z,97848.16
2019-01-24T23:44:55.155Z,97850.92
2019-01-24T23:47:25.684Z,97852.47
2019-01-24T23:49:56.284Z,97849.41
2019-01-24T23:52:27.389Z,97854.14
2019-01-24T23:54:58.215Z,97856.43
2019-01-24T23:57:28.793Z,97854.81
2019-01-24T23:59:59.349Z,97854.20
